CGP weather

Shah Amanat International Airport
Chittagong, Chittagong Division, Bangladesh

Public forecast

Using degrees Celsius for public forecast. Weather courtesy of forecast.io.

METAR (pilot weather report)

Retrieved 2019/09/18 01:00 UTC (47 minutes ago):

VGEG 180100Z 00000KT 5000 SCT018 BKN100 28/25 Q1010 NEOSIG

TAF (pilot weather forecast)

Forecast is more than 12 hours old.

Retrieved 2019/09/17 00:15 UTC (1 day ago):

TAF VGEG 172300Z 1800/1906 00000KT 4500 HZ SCT018 BECMG 1803/1805 21008KT 5000 SCT018 BECMG 1813/1815 00000KT 4500 HZ SCT018 BECMG 1903/1905 22008KT 5000 SCT018 BKN120